Time;durP1;ratioP1;P1;durP2;ratioP2;P2;SDS_P1;SDS_P2;PMS_P1;PMS_P2;Temp;Humidity;BMP_temperature;BMP_pressure;BME280_temperature;BME280_humidity;BME280_pressure;Samples;Min_cycle;Max_cycle;Signal;HPM_P1;HPM_P2
2023/03/02 00:01:20;;;;;;;7.30;4.80;;;1.80;99.90;;;;;;5047264;28;20480;-83
2023/03/02 00:03:47;;;;;;;7.20;4.63;;;1.80;99.90;;;;;;5048080;28;20450;-84
2023/03/02 00:06:14;;;;;;;9.07;4.67;;;1.80;99.90;;;;;;5047104;28;20507;-84
2023/03/02 00:08:41;;;;;;;8.50;4.97;;;1.70;99.90;;;;;;5046232;28;20459;-84
2023/03/02 00:11:08;;;;;;;11.40;4.77;;;1.70;99.90;;;;;;5046686;28;20907;-83
2023/03/02 00:13:37;;;;;;;7.87;4.00;;;1.70;99.90;;;;;;5046552;28;20508;-84
2023/03/02 00:16:05;;;;;;;9.27;4.53;;;1.70;99.90;;;;;;5045799;28;20427;-84
2023/03/02 00:18:32;;;;;;;7.80;4.20;;;1.60;99.90;;;;;;5044753;28;20891;-83
2023/03/02 00:20:58;;;;;;;6.73;4.17;;;1.50;99.90;;;;;;5044013;28;20524;-84
2023/03/02 00:23:26;;;;;;;8.57;5.00;;;1.50;99.90;;;;;;5044375;28;20448;-84
2023/03/02 00:25:53;;;;;;;6.28;4.25;;;1.40;99.90;;;;;;5035594;28;20897;-84
2023/03/02 00:28:21;;;;;;;7.20;4.97;;;1.30;99.90;;;;;;5030401;28;20318;-84
2023/03/02 00:30:49;;;;;;;7.50;4.35;;;1.40;99.90;;;;;;5027701;28;20671;-83
2023/03/02 00:33:16;;;;;;;9.97;5.10;;;1.30;99.90;;;;;;5034091;28;20308;-84
2023/03/02 00:35:43;;;;;;;8.45;5.15;;;1.30;99.90;;;;;;5042003;28;20487;-84
2023/03/02 00:38:09;;;;;;;8.85;5.18;;;1.30;99.90;;;;;;5043177;28;20284;-83
2023/03/02 00:40:36;;;;;;;7.47;4.80;;;1.40;99.90;;;;;;5043799;28;20206;-84
2023/03/02 00:43:03;;;;;;;9.80;5.90;;;1.30;99.90;;;;;;5044290;28;20296;-84
2023/03/02 00:45:30;;;;;;;7.60;4.70;;;1.30;99.90;;;;;;5045014;28;20210;-84
2023/03/02 00:47:58;;;;;;;8.07;4.87;;;1.30;99.90;;;;;;5044276;28;20237;-81
2023/03/02 00:50:25;;;;;;;9.00;5.40;;;1.30;99.90;;;;;;5043692;28;20550;-84
2023/03/02 00:52:52;;;;;;;6.97;4.35;;;1.40;99.90;;;;;;5044194;28;20466;-83
2023/03/02 00:55:20;;;;;;;6.82;5.05;;;1.40;99.90;;;;;;5043694;28;20214;-84
2023/03/02 00:57:53;;;;;;;10.43;4.70;;;1.30;99.90;;;;;;5043891;28;20206;-84
2023/03/02 01:00:21;;;;;;;9.97;6.60;;;1.20;99.90;;;;;;5043366;28;20274;-85
2023/03/02 01:02:48;;;;;;;7.63;4.80;;;1.10;99.90;;;;;;5042940;28;20504;-84
2023/03/02 01:05:17;;;;;;;7.35;4.10;;;1.10;99.90;;;;;;5043752;28;20265;-85
2023/03/02 01:07:44;;;;;;;7.20;4.32;;;1.00;99.90;;;;;;5042517;28;20272;-84
2023/03/02 01:10:12;;;;;;;6.78;4.47;;;1.00;99.90;;;;;;5041581;28;20236;-84
2023/03/02 01:12:40;;;;;;;8.05;5.10;;;1.00;99.90;;;;;;5043372;28;20311;-84
2023/03/02 01:15:08;;;;;;;9.50;5.30;;;1.00;99.90;;;;;;5044258;28;20276;-84
2023/03/02 01:17:35;;;;;;;6.95;4.75;;;0.90;99.90;;;;;;5044782;28;20270;-85
2023/03/02 01:20:04;;;;;;;11.13;5.57;;;0.90;99.90;;;;;;5043776;28;20223;-85
2023/03/02 01:22:32;;;;;;;8.07;5.20;;;0.80;1.00;;;;;;5043829;28;20253;-85
2023/03/02 01:24:59;;;;;;;10.05;5.03;;;0.80;1.00;;;;;;5042808;28;20772;-84
2023/03/02 01:27:26;;;;;;;10.13;6.35;;;0.80;1.00;;;;;;5042829;28;20213;-84
2023/03/02 01:29:53;;;;;;;13.50;6.57;;;0.70;1.00;;;;;;5041497;28;20228;-84
2023/03/02 01:32:20;;;;;;;9.02;5.53;;;0.70;1.00;;;;;;5043039;28;20264;-84
2023/03/02 01:34:47;;;;;;;8.82;5.05;;;0.70;1.00;;;;;;5039732;28;20217;-84
2023/03/02 01:37:13;;;;;;;8.80;5.50;;;0.60;1.00;;;;;;5044646;28;20208;-84
2023/03/02 01:39:42;;;;;;;9.10;4.75;;;0.50;1.00;;;;;;5025200;28;20296;-86
2023/03/02 01:42:08;;;;;;;7.53;4.43;;;0.50;1.00;;;;;;5044284;28;20280;-82
2023/03/02 01:44:42;;;;;;;8.07;4.50;;;0.50;1.00;;;;;;5043531;28;20277;-85
2023/03/02 01:47:19;;;;;;;9.43;5.70;;;0.50;1.00;;;;;;5045094;28;20199;-84
2023/03/02 01:49:50;;;;;;;8.40;4.47;;;0.40;1.00;;;;;;5044264;28;20216;-84
2023/03/02 01:52:18;;;;;;;10.45;5.75;;;0.40;1.00;;;;;;5044278;28;20211;-85
2023/03/02 01:54:48;;;;;;;8.95;5.05;;;0.40;1.00;;;;;;5045427;28;20208;-83
2023/03/02 01:57:20;;;;;;;8.85;4.32;;;0.30;1.00;;;;;;5042906;28;20256;-83
2023/03/02 01:59:47;;;;;;;6.85;4.82;;;0.30;1.00;;;;;;5021681;28;20206;-84
2023/03/02 02:02:14;;;;;;;11.45;5.60;;;0.30;1.00;;;;;;5040219;28;20203;-84
2023/03/02 02:04:47;;;;;;;9.20;5.10;;;0.30;1.00;;;;;;5042823;28;20270;-84
2023/03/02 02:07:15;;;;;;;8.20;5.07;;;0.30;1.00;;;;;;5042682;28;20197;-84
2023/03/02 02:09:46;;;;;;;7.82;4.85;;;0.40;1.00;;;;;;5041967;28;20316;-84
2023/03/02 02:12:16;;;;;;;6.95;4.68;;;0.40;1.00;;;;;;5042445;28;20662;-84
2023/03/02 02:14:44;;;;;;;8.95;5.47;;;0.30;1.00;;;;;;5043759;28;20222;-85
2023/03/02 02:17:12;;;;;;;7.30;4.38;;;0.30;1.00;;;;;;5042653;28;20200;-86
2023/03/02 02:19:54;;;;;;;8.38;5.40;;;0.30;1.00;;;;;;5042840;28;20583;-85
2023/03/02 02:22:31;;;;;;;11.27;5.15;;;0.30;1.00;;;;;;5041289;28;20232;-84
2023/03/02 02:25:03;;;;;;;9.85;4.90;;;0.30;1.00;;;;;;5042966;28;20197;-85
2023/03/02 02:27:32;;;;;;;8.60;5.25;;;0.20;1.00;;;;;;5042112;28;20635;-85
2023/03/02 02:30:02;;;;;;;11.50;5.70;;;0.30;1.00;;;;;;5042348;28;20238;-85
2023/03/02 02:32:32;;;;;;;9.10;5.10;;;0.30;1.00;;;;;;5029110;28;20319;-84
2023/03/02 02:35:03;;;;;;;9.63;5.47;;;0.20;1.00;;;;;;5025095;28;20215;-84
2023/03/02 02:37:35;;;;;;;9.88;4.88;;;0.10;1.00;;;;;;5042029;28;20258;-85
2023/03/02 02:40:06;;;;;;;9.40;5.53;;;0.10;1.00;;;;;;5032058;28;20278;-84
2023/03/02 02:42:37;;;;;;;7.03;5.45;;;0.10;1.00;;;;;;5041395;28;20687;-84
2023/03/02 02:45:07;;;;;;;6.50;4.38;;;0.10;1.00;;;;;;5046081;28;20281;-85
2023/03/02 02:47:34;;;;;;;9.60;5.72;;;0.20;1.00;;;;;;5045087;28;20289;-84
2023/03/02 02:50:00;;;;;;;8.35;4.93;;;0.10;1.00;;;;;;5045793;28;20234;-85
2023/03/02 02:52:29;;;;;;;9.35;5.22;;;0.10;1.00;;;;;;5045576;28;20233;-85
2023/03/02 02:54:57;;;;;;;8.55;5.18;;;0.10;1.00;;;;;;5044971;28;20209;-85
2023/03/02 02:57:28;;;;;;;7.13;4.07;;;0.10;1.00;;;;;;5045123;28;20208;-85
2023/03/02 02:59:59;;;;;;;9.75;5.63;;;0.10;1.00;;;;;;5044873;28;20217;-85
2023/03/02 03:02:32;;;;;;;8.50;4.53;;;0.10;1.00;;;;;;5044050;28;20249;-86
2023/03/02 03:05:03;;;;;;;6.80;5.93;;;0.10;1.00;;;;;;5044235;28;20676;-85
2023/03/02 03:07:31;;;;;;;8.60;4.75;;;0.10;1.00;;;;;;5045156;28;20213;-85
2023/03/02 03:10:03;;;;;;;8.70;5.53;;;0.10;1.00;;;;;;5043784;28;20225;-85
2023/03/02 03:12:33;;;;;;;7.88;4.80;;;0.10;1.00;;;;;;5048077;28;20220;-85
2023/03/02 03:15:02;;;;;;;9.30;5.72;;;0.10;1.00;;;;;;5048960;28;20233;-84
2023/03/02 03:17:29;;;;;;;8.90;5.18;;;0.10;1.00;;;;;;5048474;28;20219;-86
2023/03/02 03:20:05;;;;;;;8.00;4.38;;;0.20;1.00;;;;;;5045910;28;20257;-84
2023/03/02 03:22:33;;;;;;;9.82;4.43;;;0.20;1.00;;;;;;5045403;28;20225;-85
2023/03/02 03:25:00;;;;;;;7.00;4.82;;;0.20;1.00;;;;;;5045539;28;20205;-85
2023/03/02 03:27:27;;;;;;;8.80;4.78;;;0.30;1.00;;;;;;5047288;28;20204;-85
2023/03/02 03:29:54;;;;;;;8.38;4.95;;;0.30;1.00;;;;;;5045762;28;20223;-85
2023/03/02 03:32:22;;;;;;;7.25;4.72;;;0.30;1.00;;;;;;5049705;28;20220;-83
2023/03/02 03:34:49;;;;;;;7.88;4.55;;;0.30;1.00;;;;;;5050688;28;20575;-84
2023/03/02 03:37:18;;;;;;;8.13;5.32;;;0.20;1.00;;;;;;5048398;28;20213;-84
2023/03/02 03:39:46;;;;;;;9.02;5.25;;;0.20;1.00;;;;;;5050533;28;20658;-85
2023/03/02 03:42:13;;;;;;;9.65;5.50;;;0.30;1.00;;;;;;5044450;28;20308;-85
2023/03/02 03:44:40;;;;;;;8.88;5.18;;;0.20;1.00;;;;;;5044793;28;20204;-85
2023/03/02 03:47:06;;;;;;;7.25;4.85;;;0.20;1.00;;;;;;5045645;28;20281;-84
2023/03/02 03:49:35;;;;;;;8.00;5.15;;;0.20;1.00;;;;;;5024121;28;20350;-83
2023/03/02 03:52:02;;;;;;;8.65;5.57;;;0.20;1.00;;;;;;5022791;28;20217;-82
2023/03/02 03:54:29;;;;;;;7.28;4.75;;;0.20;1.00;;;;;;5041029;28;20394;-83
2023/03/02 03:56:56;;;;;;;8.07;4.35;;;0.20;1.00;;;;;;5042495;28;20214;-83
2023/03/02 03:59:25;;;;;;;10.82;6.85;;;0.20;1.00;;;;;;5041431;28;20207;-83
2023/03/02 04:01:55;;;;;;;11.00;4.80;;;0.10;1.00;;;;;;5036445;28;20301;-83
2023/03/02 04:04:25;;;;;;;9.63;5.32;;;0.10;1.00;;;;;;5027985;28;20237;-83
2023/03/02 04:06:53;;;;;;;7.63;5.47;;;0.10;1.00;;;;;;5037773;28;20263;-83
2023/03/02 04:09:20;;;;;;;9.18;5.30;;;0.10;1.00;;;;;;5042361;28;20230;-83
2023/03/02 04:11:49;;;;;;;8.60;4.28;;;0.10;1.00;;;;;;5039958;28;20208;-84
2023/03/02 04:14:17;;;;;;;7.95;5.47;;;0.10;1.00;;;;;;5039313;28;20226;-84
2023/03/02 04:16:44;;;;;;;7.28;4.15;;;0.10;1.00;;;;;;5041360;28;20214;-82
2023/03/02 04:19:13;;;;;;;7.40;4.43;;;0.10;1.00;;;;;;5044513;28;20206;-83
2023/03/02 04:21:43;;;;;;;8.10;3.90;;;0.10;1.00;;;;;;5040566;28;20203;-85
2023/03/02 04:24:13;;;;;;;9.18;5.20;;;0.10;1.00;;;;;;5040676;28;20288;-85
2023/03/02 04:26:42;;;;;;;9.20;4.93;;;0.10;1.00;;;;;;5041695;28;20207;-84
2023/03/02 04:29:10;;;;;;;10.18;4.80;;;0.10;1.00;;;;;;5040113;28;20226;-85
2023/03/02 04:31:37;;;;;;;11.10;4.82;;;0.10;1.00;;;;;;5039557;28;20424;-84
2023/03/02 04:34:04;;;;;;;7.40;4.68;;;0.20;1.00;;;;;;5041164;28;20226;-84
2023/03/02 04:36:31;;;;;;;8.40;4.28;;;0.20;1.00;;;;;;5039674;28;20237;-83
2023/03/02 04:38:58;;;;;;;8.50;4.20;;;0.20;1.00;;;;;;5040938;28;20209;-84
2023/03/02 04:41:26;;;;;;;7.32;4.45;;;0.20;1.00;;;;;;5040811;28;20201;-84
2023/03/02 04:43:53;;;;;;;7.50;4.28;;;0.30;1.00;;;;;;5040918;28;20241;-84
2023/03/02 04:46:24;;;;;;;6.75;4.03;;;0.30;1.00;;;;;;5041814;28;20202;-84
2023/03/02 04:48:51;;;;;;;8.38;4.30;;;0.30;1.00;;;;;;5040232;28;20209;-85
2023/03/02 04:51:22;;;;;;;6.68;4.68;;;0.30;1.00;;;;;;5042112;28;20635;-84
2023/03/02 04:53:49;;;;;;;5.55;3.83;;;0.30;1.00;;;;;;5043903;28;20230;-84
2023/03/02 04:56:16;;;;;;;7.25;4.68;;;0.40;1.00;;;;;;5041124;28;20213;-83
2023/03/02 04:58:44;;;;;;;10.00;4.45;;;0.40;1.00;;;;;;5036620;28;20209;-85
2023/03/02 05:01:12;;;;;;;7.10;4.40;;;0.40;1.00;;;;;;5036063;28;20204;-85
2023/03/02 05:03:39;;;;;;;8.20;4.45;;;0.30;1.00;;;;;;5037088;28;20225;-86
2023/03/02 05:06:06;;;;;;;6.75;4.32;;;0.30;1.00;;;;;;5035590;28;20209;-86
2023/03/02 05:08:33;;;;;;;6.28;3.90;;;0.30;1.00;;;;;;5035427;28;20206;-84
2023/03/02 05:11:00;;;;;;;9.43;4.93;;;0.30;1.00;;;;;;5035641;28;20233;-85
2023/03/02 05:13:28;;;;;;;7.00;3.70;;;0.10;1.00;;;;;;5035133;28;20232;-86
2023/03/02 05:15:56;;;;;;;8.68;4.65;;;0.20;1.00;;;;;;5027118;28;20215;-86
2023/03/02 05:18:23;;;;;;;6.30;4.10;;;0.10;1.00;;;;;;5024491;28;20209;-86
2023/03/02 05:20:51;;;;;;;7.25;4.70;;;0.00;1.00;;;;;;5027228;28;20224;-86
2023/03/02 05:23:23;;;;;;;7.47;5.50;;;0.00;1.00;;;;;;5035547;28;20233;-86
2023/03/02 05:25:51;;;;;;;7.00;4.00;;;0.00;1.00;;;;;;5028234;28;20670;-86
2023/03/02 05:28:19;;;;;;;9.35;4.50;;;0.00;1.00;;;;;;5026585;28;20210;-84
2023/03/02 05:30:46;;;;;;;8.10;4.68;;;0.00;1.00;;;;;;5020586;28;20224;-84
2023/03/02 05:33:15;;;;;;;9.57;5.45;;;0.00;1.00;;;;;;5016209;28;20237;-85
2023/03/02 05:35:42;;;;;;;10.25;5.43;;;-0.10;1.00;;;;;;5020028;28;20203;-85
2023/03/02 05:38:10;;;;;;;7.35;4.47;;;-0.10;1.00;;;;;;5018271;28;20293;-84
2023/03/02 05:40:38;;;;;;;7.50;4.68;;;-0.10;1.00;;;;;;5034273;28;20244;-85
2023/03/02 05:43:06;;;;;;;9.35;4.35;;;-0.10;1.00;;;;;;5035311;28;20804;-87
2023/03/02 05:45:35;;;;;;;7.45;4.60;;;-0.20;1.00;;;;;;5029756;28;20206;-86
2023/03/02 05:48:02;;;;;;;7.63;4.95;;;-0.20;1.00;;;;;;5021587;28;20662;-86
2023/03/02 05:50:31;;;;;;;7.80;4.75;;;-0.20;1.00;;;;;;5016430;28;20223;-86
2023/03/02 05:53:01;;;;;;;8.35;5.05;;;-0.30;1.00;;;;;;5015332;28;20677;-86
2023/03/02 05:55:28;;;;;;;7.53;4.65;;;-0.30;1.00;;;;;;5027612;28;20213;-85
2023/03/02 05:57:55;;;;;;;8.95;5.25;;;-0.30;1.00;;;;;;5019005;28;20213;-86
2023/03/02 06:00:22;;;;;;;8.30;4.95;;;-0.20;1.00;;;;;;5039406;28;20226;-86
2023/03/02 06:02:49;;;;;;;11.05;4.93;;;-0.20;1.00;;;;;;5034092;28;20226;-86
2023/03/02 06:05:18;;;;;;;7.50;4.68;;;-0.20;1.00;;;;;;5028364;28;20294;-86
2023/03/02 06:07:46;;;;;;;6.93;4.35;;;-0.20;1.00;;;;;;5024714;28;20212;-86
2023/03/02 06:10:13;;;;;;;6.88;3.75;;;-0.20;1.00;;;;;;5031136;28;20229;-87
2023/03/02 06:12:40;;;;;;;8.32;5.15;;;-0.20;1.00;;;;;;5028612;28;20219;-86
2023/03/02 06:15:08;;;;;;;7.43;4.68;;;-0.20;1.00;;;;;;5030866;28;20233;-85
2023/03/02 06:17:35;;;;;;;6.03;4.30;;;-0.10;1.00;;;;;;5026319;28;20217;-86
2023/03/02 06:20:05;;;;;;;11.52;4.65;;;-0.10;1.00;;;;;;5027455;28;20579;-86
2023/03/02 06:22:31;;;;;;;9.10;5.18;;;-0.10;1.00;;;;;;5020643;28;20225;-85
2023/03/02 06:24:59;;;;;;;10.18;5.15;;;0.00;1.00;;;;;;5017568;28;20213;-85
2023/03/02 06:27:26;;;;;;;8.20;4.82;;;0.00;1.00;;;;;;5027311;28;20217;-86
2023/03/02 06:29:53;;;;;;;8.02;4.38;;;0.10;1.00;;;;;;5029630;28;20221;-86
2023/03/02 06:32:20;;;;;;;13.00;5.43;;;0.10;1.00;;;;;;5025899;28;20653;-84
2023/03/02 06:34:47;;;;;;;6.68;4.13;;;0.20;1.00;;;;;;5030815;28;20207;-85
2023/03/02 06:37:13;;;;;;;7.70;4.78;;;0.20;1.00;;;;;;5020997;28;20208;-86
2023/03/02 06:39:41;;;;;;;9.30;5.03;;;0.20;1.00;;;;;;4988047;28;20307;-87
2023/03/02 06:42:09;;;;;;;6.32;4.15;;;0.20;1.00;;;;;;5020746;28;20216;-86
2023/03/02 06:44:36;;;;;;;7.55;4.63;;;0.20;1.00;;;;;;5026775;28;20219;-87
2023/03/02 06:47:02;;;;;;;9.75;5.68;;;0.30;1.00;;;;;;5024424;28;20219;-87
2023/03/02 06:49:29;;;;;;;9.25;5.18;;;0.30;1.00;;;;;;5024510;28;20217;-86
2023/03/02 06:51:56;;;;;;;7.97;5.15;;;0.30;1.00;;;;;;5030254;28;20764;-85
2023/03/02 06:54:23;;;;;;;10.05;6.00;;;0.30;1.00;;;;;;5027553;28;20309;-85
2023/03/02 06:56:50;;;;;;;10.77;5.78;;;0.30;1.00;;;;;;5030128;28;20208;-85
2023/03/02 06:59:18;;;;;;;7.88;5.80;;;0.40;1.00;;;;;;5026220;28;20205;-85
2023/03/02 07:01:45;;;;;;;8.30;5.80;;;0.40;1.00;;;;;;5029357;28;20210;-84
2023/03/02 07:04:12;;;;;;;8.32;5.13;;;0.40;1.00;;;;;;5026570;28;20225;-84
2023/03/02 07:06:39;;;;;;;11.15;7.00;;;0.40;1.00;;;;;;5027930;28;20228;-85
2023/03/02 07:09:06;;;;;;;12.00;6.55;;;0.50;1.00;;;;;;5026511;28;20216;-85
2023/03/02 07:11:33;;;;;;;7.22;4.90;;;0.50;1.00;;;;;;5024434;28;20323;-85
2023/03/02 07:14:00;;;;;;;12.93;6.97;;;0.60;1.00;;;;;;5028956;28;20314;-85
2023/03/02 07:16:29;;;;;;;10.73;6.03;;;0.60;1.00;;;;;;5027263;28;20210;-85
2023/03/02 07:18:55;;;;;;;10.05;6.45;;;0.60;1.00;;;;;;5026033;28;20225;-85
2023/03/02 07:21:22;;;;;;;13.38;5.85;;;0.70;1.00;;;;;;5026477;28;20206;-85
2023/03/02 07:23:49;;;;;;;10.55;6.05;;;0.70;1.00;;;;;;5029631;28;20225;-86
2023/03/02 07:26:16;;;;;;;10.27;6.05;;;0.80;1.00;;;;;;5027835;28;20265;-86
2023/03/02 07:28:43;;;;;;;10.45;6.30;;;0.80;1.00;;;;;;5047327;28;20237;-85
2023/03/02 07:31:11;;;;;;;11.40;6.07;;;0.90;1.00;;;;;;5046560;28;20233;-86
2023/03/02 07:33:40;;;;;;;9.05;5.50;;;0.90;1.00;;;;;;5047940;28;20238;-86
2023/03/02 07:36:07;;;;;;;9.90;6.38;;;1.00;1.00;;;;;;5029593;28;20272;-86
2023/03/02 07:38:36;;;;;;;9.60;5.45;;;1.00;1.00;;;;;;5029525;28;20213;-85
2023/03/02 07:41:07;;;;;;;12.07;6.78;;;1.10;1.00;;;;;;5033387;28;20200;-86
2023/03/02 07:43:36;;;;;;;11.13;5.60;;;1.10;1.00;;;;;;5034425;28;20339;-85
2023/03/02 07:46:03;;;;;;;10.20;5.45;;;1.10;1.00;;;;;;5031380;28;20214;-84
2023/03/02 07:48:30;;;;;;;9.18;5.53;;;1.20;1.00;;;;;;5031315;28;20236;-85
2023/03/02 07:50:59;;;;;;;9.40;5.80;;;1.20;1.00;;;;;;5035694;28;20253;-84
2023/03/02 07:53:26;;;;;;;10.32;5.20;;;1.30;1.00;;;;;;5035393;28;20292;-85
2023/03/02 07:55:53;;;;;;;8.20;5.37;;;1.40;1.00;;;;;;5043877;28;20205;-87
2023/03/02 07:58:20;;;;;;;10.98;6.25;;;1.50;1.00;;;;;;5033692;28;20420;-85
2023/03/02 08:00:47;;;;;;;7.50;5.37;;;1.60;1.00;;;;;;5035663;28;20240;-86
2023/03/02 08:03:14;;;;;;;10.10;5.83;;;1.70;1.00;;;;;;5044665;28;20483;-84
2023/03/02 08:05:41;;;;;;;9.38;5.25;;;1.80;1.00;;;;;;5046334;28;20530;-84
2023/03/02 08:08:09;;;;;;;11.00;4.97;;;1.90;1.00;;;;;;5031725;28;20270;-86
2023/03/02 08:10:36;;;;;;;6.87;4.53;;;2.00;1.00;;;;;;5037036;28;20309;-86
2023/03/02 08:13:04;;;;;;;8.13;4.80;;;2.10;1.00;;;;;;5039758;28;20452;-84
2023/03/02 08:15:31;;;;;;;12.53;6.07;;;2.20;99.90;;;;;;5043739;28;20222;-86
2023/03/02 08:17:58;;;;;;;7.67;4.40;;;2.30;99.90;;;;;;5045914;28;20532;-83
2023/03/02 08:20:25;;;;;;;9.93;5.43;;;2.40;99.90;;;;;;5028927;28;20415;-84
2023/03/02 08:22:52;;;;;;;9.70;5.05;;;2.40;99.90;;;;;;5033096;28;20490;-83
2023/03/02 08:25:20;;;;;;;9.50;4.50;;;2.60;99.90;;;;;;5027103;28;20285;-85
2023/03/02 08:27:47;;;;;;;7.20;4.40;;;2.60;99.90;;;;;;5024919;28;20429;-85
2023/03/02 08:30:14;;;;;;;6.60;4.57;;;2.70;99.90;;;;;;5027634;28;20224;-84
2023/03/02 08:32:41;;;;;;;8.37;4.57;;;2.80;99.90;;;;;;5032106;28;20563;-84
2023/03/02 08:35:08;;;;;;;9.40;5.63;;;3.00;99.90;;;;;;5037973;28;20516;-84
2023/03/02 08:37:35;;;;;;;10.07;4.60;;;3.20;99.90;;;;;;5034160;28;20481;-84
2023/03/02 08:40:02;;;;;;;8.30;5.20;;;3.40;99.90;;;;;;5028482;28;20473;-83
2023/03/02 08:42:31;;;;;;;8.93;4.97;;;3.50;99.90;;;;;;5030135;28;20460;-84
2023/03/02 08:44:57;;;;;;;8.90;4.90;;;3.60;99.90;;;;;;5036556;28;20447;-83
2023/03/02 08:47:24;;;;;;;10.57;5.17;;;3.60;99.90;;;;;;5031931;28;20533;-83
2023/03/02 08:49:51;;;;;;;8.37;4.67;;;3.70;99.90;;;;;;5030279;28;20520;-85
2023/03/02 08:52:18;;;;;;;10.27;5.53;;;3.90;99.90;;;;;;5035827;28;21326;-84
2023/03/02 08:54:45;;;;;;;7.83;5.23;;;4.20;99.90;;;;;;5026014;28;20445;-83
2023/03/02 08:57:12;;;;;;;7.03;4.47;;;4.60;99.90;;;;;;5038184;28;20989;-84
2023/03/02 08:59:40;;;;;;;8.10;4.90;;;5.00;99.90;;;;;;5039620;28;20436;-84
2023/03/02 09:02:10;;;;;;;7.00;4.50;;;5.20;99.90;;;;;;5040867;28;20426;-85
2023/03/02 09:04:36;;;;;;;6.90;5.33;;;5.10;99.90;;;;;;5040913;28;20427;-84
2023/03/02 09:07:03;;;;;;;8.17;4.73;;;5.40;99.90;;;;;;5031911;28;20512;-84
2023/03/02 09:09:31;;;;;;;6.73;4.87;;;5.60;99.90;;;;;;5030394;28;20950;-84
2023/03/02 09:11:58;;;;;;;9.67;5.53;;;5.90;99.90;;;;;;5024021;28;20497;-84
2023/03/02 09:14:26;;;;;;;6.80;4.57;;;6.40;99.90;;;;;;5029002;28;20489;-85
2023/03/02 09:16:54;;;;;;;9.90;5.60;;;6.80;99.90;;;;;;5025930;28;20454;-85
2023/03/02 09:19:21;;;;;;;8.00;5.40;;;6.80;99.90;;;;;;5028733;28;20448;-83
2023/03/02 09:21:48;;;;;;;9.97;6.27;;;6.90;99.90;;;;;;5039190;28;20454;-85
2023/03/02 09:24:15;;;;;;;7.07;4.83;;;7.50;99.90;;;;;;5037995;28;20499;-85
2023/03/02 09:26:42;;;;;;;9.27;4.87;;;8.10;99.90;;;;;;5044204;28;20449;-86
2023/03/02 09:29:09;;;;;;;7.70;4.63;;;8.60;99.90;;;;;;5039964;28;20981;-83
2023/03/02 09:31:36;;;;;;;7.87;5.53;;;8.80;99.90;;;;;;5025771;28;20557;-85
2023/03/02 09:34:04;;;;;;;8.13;5.23;;;9.20;99.90;;;;;;5030209;28;20504;-85
2023/03/02 09:36:31;;;;;;;6.57;4.43;;;9.50;99.90;;;;;;5025033;28;20983;-86
2023/03/02 09:38:58;;;;;;;8.00;5.20;;;9.60;99.90;;;;;;5027754;28;20560;-84
2023/03/02 09:41:57;;;;;;;8.17;4.63;;;9.90;99.90;;;;;;5027037;28;20445;-85
2023/03/02 09:44:40;;;;;;;9.70;5.20;;;10.30;99.90;;;;;;5032720;28;20480;-85
2023/03/02 09:47:16;;;;;;;9.53;4.63;;;10.80;99.90;;;;;;5019773;28;20453;-85
2023/03/02 09:49:55;;;;;;;7.77;5.97;;;11.10;99.90;;;;;;5032246;28;20437;-86
2023/03/02 09:52:30;;;;;;;8.90;5.57;;;11.80;99.90;;;;;;5025063;28;20505;-85
2023/03/02 09:54:59;;;;;;;12.23;5.07;;;12.30;99.90;;;;;;5031264;28;20462;-85
2023/03/02 09:57:31;;;;;;;10.30;5.70;;;12.10;99.90;;;;;;5031147;28;20551;-86
2023/03/02 10:00:02;;;;;;;7.53;5.27;;;13.10;99.90;;;;;;5034502;28;20444;-84
2023/03/02 10:02:32;;;;;;;7.60;5.30;;;14.40;99.90;;;;;;5037949;28;20560;-85
2023/03/02 10:05:05;;;;;;;8.47;5.10;;;13.70;99.90;;;;;;5036169;28;20448;-85
2023/03/02 10:07:35;;;;;;;8.90;4.37;;;13.20;99.90;;;;;;5039915;28;20445;-82
2023/03/02 10:10:06;;;;;;;6.97;5.00;;;13.50;99.90;;;;;;5044960;28;20464;-86
2023/03/02 10:12:47;;;;;;;7.07;5.33;;;13.00;99.90;;;;;;5032509;28;20629;-86
2023/03/02 10:15:22;;;;;;;10.13;5.00;;;12.50;99.90;;;;;;5017216;28;20454;-86
2023/03/02 10:17:59;;;;;;;6.40;4.73;;;11.50;99.90;;;;;;5035266;28;20451;-86
2023/03/02 10:20:32;;;;;;;8.70;5.20;;;11.50;99.90;;;;;;5034160;28;20440;-86
2023/03/02 10:23:07;;;;;;;8.00;5.10;;;10.90;99.90;;;;;;5023160;28;20490;-86
2023/03/02 10:25:41;;;;;;;6.40;4.97;;;10.60;99.90;;;;;;5021032;28;20835;-86
2023/03/02 10:28:16;;;;;;;8.33;5.17;;;10.70;99.90;;;;;;5032869;28;20451;-88
2023/03/02 10:30:45;;;;;;;5.97;4.93;;;11.00;99.90;;;;;;5035306;28;20797;-88
2023/03/02 10:33:15;;;;;;;6.80;4.87;;;11.60;99.90;;;;;;5032680;28;20487;-88
2023/03/02 10:35:47;;;;;;;6.20;4.27;;;12.40;99.90;;;;;;5036416;28;20463;-88
2023/03/02 10:38:16;;;;;;;8.50;4.63;;;12.60;99.90;;;;;;5038488;28;20452;-89
2023/03/02 10:40:46;;;;;;;8.60;4.80;;;13.50;99.90;;;;;;5035191;28;20464;-87
2023/03/02 10:43:18;;;;;;;10.60;4.77;;;13.80;99.90;;;;;;5035402;28;20493;-88
2023/03/02 10:45:45;;;;;;;8.80;5.40;;;15.40;99.90;;;;;;5034696;28;21116;-86
2023/03/02 10:48:13;;;;;;;7.30;5.07;;;17.30;99.90;;;;;;5033558;28;20478;-88
2023/03/02 10:50:44;;;;;;;6.43;4.53;;;18.00;99.90;;;;;;5033335;28;20451;-88
2023/03/02 10:53:18;;;;;;;6.73;4.47;;;18.80;99.90;;;;;;5036984;28;20492;-88
2023/03/02 10:55:47;;;;;;;6.50;5.10;;;19.20;99.90;;;;;;5036810;28;20833;-87
2023/03/02 10:58:24;;;;;;;7.93;5.60;;;20.00;99.90;;;;;;5038457;28;20538;-87
2023/03/02 11:00:59;;;;;;;9.60;5.60;;;19.30;99.90;;;;;;5037069;28;20443;-88
2023/03/02 11:03:27;;;;;;;10.40;5.17;;;20.40;99.90;;;;;;5037630;28;20527;-87
2023/03/02 11:05:55;;;;;;;6.13;4.20;;;20.90;99.90;;;;;;5037179;28;20458;-88
2023/03/02 11:08:23;;;;;;;6.63;4.47;;;22.40;99.90;;;;;;5037791;28;20475;-87
2023/03/02 11:10:57;;;;;;;7.17;4.53;;;22.20;99.90;;;;;;5036841;28;20461;-86
2023/03/02 11:13:27;;;;;;;6.33;4.90;;;22.10;99.90;;;;;;5038247;28;20468;-87
2023/03/02 11:15:56;;;;;;;6.67;4.40;;;21.70;99.90;;;;;;5039515;28;20992;-87
2023/03/02 11:18:30;;;;;;;7.43;5.13;;;21.80;99.90;;;;;;5059218;28;20448;-87
2023/03/02 11:21:01;;;;;;;6.00;4.67;;;22.50;99.90;;;;;;5059484;28;20504;-88
2023/03/02 11:23:37;;;;;;;6.80;5.57;;;22.60;99.90;;;;;;5042639;28;20563;-88
2023/03/02 11:26:12;;;;;;;6.63;4.83;;;23.10;99.90;;;;;;5037251;28;20452;-88
2023/03/02 11:28:48;;;;;;;5.70;4.70;;;23.80;99.90;;;;;;5035200;28;20506;-88
2023/03/02 11:31:22;;;;;;;5.53;3.87;;;23.40;99.90;;;;;;5033703;28;20475;-88
2023/03/02 11:34:01;;;;;;;12.13;4.60;;;23.00;99.90;;;;;;5034292;28;20483;-88
2023/03/02 11:36:39;;;;;;;5.60;4.23;;;23.00;99.90;;;;;;5031829;28;20453;-87
2023/03/02 11:39:11;;;;;;;5.43;4.07;;;22.10;99.90;;;;;;5028801;28;20445;-88
2023/03/02 11:41:38;;;;;;;7.90;4.60;;;22.30;99.90;;;;;;5036765;28;20459;-90
2023/03/02 11:44:14;;;;;;;5.20;4.03;;;22.40;99.90;;;;;;5037450;28;20482;-89
2023/03/02 11:46:45;;;;;;;7.03;4.60;;;22.70;99.90;;;;;;5026972;28;20449;-87
2023/03/02 11:49:18;;;;;;;6.20;4.70;;;22.30;99.90;;;;;;5037644;28;20520;-88
2023/03/02 11:51:53;;;;;;;6.27;4.07;;;22.40;99.90;;;;;;5036031;28;20484;-87
2023/03/02 11:54:36;;;;;;;5.90;4.43;;;22.50;99.90;;;;;;5037258;28;20559;-86
2023/03/02 11:57:03;;;;;;;6.03;5.07;;;21.50;99.90;;;;;;5036948;28;20452;-87
2023/03/02 11:59:31;;;;;;;5.70;4.80;;;22.30;99.90;;;;;;5021773;28;20462;-86
2023/03/02 12:02:00;;;;;;;5.23;4.50;;;22.90;99.90;;;;;;5034568;28;20457;-86
2023/03/02 12:04:32;;;;;;;5.33;3.97;;;22.70;99.90;;;;;;5036592;28;20828;-86
2023/03/02 12:07:03;;;;;;;6.43;4.10;;;23.60;99.90;;;;;;5035609;28;20543;-86
2023/03/02 12:09:35;;;;;;;6.30;4.53;;;24.60;99.90;;;;;;5035455;28;20448;-86
2023/03/02 12:12:32;;;;;;;5.30;3.40;;;24.20;99.90;;;;;;5035369;28;20520;-86
2023/03/02 12:15:01;;;;;;;6.63;4.57;;;25.50;99.90;;;;;;5033180;28;20459;-85
2023/03/02 12:17:33;;;;;;;5.90;4.80;;;25.50;99.90;;;;;;5038059;28;20543;-85
2023/03/02 12:20:25;;;;;;;4.63;4.13;;;23.40;99.90;;;;;;5039484;28;20484;-85
2023/03/02 12:22:54;;;;;;;4.00;3.50;;;22.30;99.90;;;;;;5021801;28;20476;-86
2023/03/02 12:25:37;;;;;;;6.83;4.50;;;23.20;99.90;;;;;;5018327;28;20442;-85
2023/03/02 12:28:04;;;;;;;4.90;3.57;;;22.40;99.90;;;;;;5026983;28;20448;-85
2023/03/02 12:30:31;;;;;;;5.20;4.00;;;22.90;99.90;;;;;;5039614;28;20445;-85
2023/03/02 12:33:18;;;;;;;4.10;3.60;;;22.40;99.90;;;;;;5038462;28;20485;-85
2023/03/02 12:35:47;;;;;;;4.73;3.83;;;23.50;99.90;;;;;;5040607;28;20449;-85
2023/03/02 12:38:28;;;;;;;4.77;3.40;;;24.50;99.90;;;;;;5041927;28;20445;-85
2023/03/02 12:41:11;;;;;;;4.30;3.40;;;24.90;99.90;;;;;;5037101;28;20448;-86
2023/03/02 12:43:44;;;;;;;4.67;4.00;;;24.40;99.90;;;;;;5035450;28;20480;-84
2023/03/02 12:46:33;;;;;;;4.03;3.20;;;26.00;99.90;;;;;;5042860;28;20440;-84
2023/03/02 12:49:10;;;;;;;4.70;3.70;;;25.10;99.90;;;;;;5041475;28;20480;-84
2023/03/02 12:51:55;;;;;;;9.47;3.80;;;26.00;99.90;;;;;;5023541;28;20444;-85
2023/03/02 12:54:26;;;;;;;6.60;4.07;;;24.60;99.90;;;;;;5023477;28;20909;-84
2023/03/02 12:57:07;;;;;;;4.53;2.70;;;23.30;99.90;;;;;;5023017;28;20529;-85
2023/03/02 12:59:35;;;;;;;4.80;4.00;;;23.50;99.90;;;;;;5028345;28;20511;-85
2023/03/02 13:02:15;;;;;;;4.20;3.20;;;23.50;99.90;;;;;;5024218;28;20540;-86
2023/03/02 13:04:43;;;;;;;6.77;4.03;;;23.90;99.90;;;;;;5032336;28;20451;-86
2023/03/02 13:07:19;;;;;;;7.13;3.80;;;24.40;99.90;;;;;;5042354;28;21320;-85
2023/03/02 13:09:51;;;;;;;6.37;4.00;;;25.90;99.90;;;;;;5042459;28;20543;-85